Time;durP1;ratioP1;P1;durP2;ratioP2;P2;SDS_P1;SDS_P2;PMS_P1;PMS_P2;Temp;Humidity;BMP_temperature;BMP_pressure;BME280_temperature;BME280_humidity;BME280_pressure;Samples;Min_cycle;Max_cycle;Signal;HPM_P1;HPM_P2
2022/06/14 11:33:30;;;;;;;3.42;0.80;;;;;;;16.49;56.78;100958.94;5177878;27;20118;-80
2022/06/14 11:36:15;;;;;;;3.17;0.75;;;;;;;16.55;56.86;100957.41;5147151;27;20081;-81
2022/06/14 11:39:07;;;;;;;2.13;0.80;;;;;;;16.76;56.56;100953.34;5094754;27;20046;-81
2022/06/14 11:41:51;;;;;;;3.10;0.60;;;;;;;17.00;55.90;100954.22;5102706;28;20062;-81
2022/06/14 11:44:36;;;;;;;3.78;0.80;;;;;;;17.10;55.20;100954.88;5088275;28;20503;-81
2022/06/14 11:47:28;;;;;;;3.90;0.70;;;;;;;17.17;55.48;100952.34;5087600;28;20041;-81
2022/06/14 11:50:16;;;;;;;2.72;0.73;;;;;;;17.12;54.86;100952.03;5069726;28;20586;-82
2022/06/14 11:52:59;;;;;;;3.42;0.80;;;;;;;17.04;55.13;100938.69;5066375;28;20032;-81
2022/06/14 11:55:34;;;;;;;2.55;0.70;;;;;;;16.97;54.89;100939.41;5067847;28;20029;-81
2022/06/14 11:58:15;;;;;;;2.97;0.73;;;;;;;16.95;55.06;100944.09;5102842;28;20630;-82
2022/06/14 12:01:26;;;;;;;5.45;0.77;;;;;;;16.88;54.16;100937.78;5086262;28;20039;-82
2022/06/14 12:04:20;;;;;;;1.38;0.45;;;;;;;16.90;54.60;100941.09;5075079;28;20433;-81
2022/06/14 12:07:38;;;;;;;2.67;0.60;;;;;;;16.85;54.18;100930.94;5064109;28;20040;-81
2022/06/14 12:10:26;;;;;;;4.75;1.10;;;;;;;16.86;53.78;100915.75;5027628;28;20031;-81
2022/06/14 12:13:19;;;;;;;6.47;0.80;;;;;;;16.77;54.56;100928.28;5088237;28;20182;-82
2022/06/14 12:16:13;;;;;;;5.45;1.10;;;;;;;16.77;54.60;100917.63;5077094;28;20038;-81
2022/06/14 12:18:48;;;;;;;8.48;0.85;;;;;;;16.77;54.33;100925.63;5066888;28;20040;-81
2022/06/14 12:21:40;;;;;;;5.85;0.77;;;;;;;16.75;53.85;100919.66;5080142;28;20036;-81
2022/06/14 12:24:10;;;;;;;4.05;1.13;;;;;;;16.71;54.09;100916.50;5102381;28;20108;-81
2022/06/14 12:26:47;;;;;;;4.28;0.95;;;;;;;16.71;53.87;100912.97;5104951;28;20031;-81
2022/06/14 12:29:21;;;;;;;6.47;1.10;;;;;;;16.69;54.04;100920.34;5071523;28;20100;-81
2022/06/14 12:32:14;;;;;;;4.32;1.05;;;;;;;16.73;53.46;100914.50;5085825;28;20040;-81
2022/06/14 12:34:50;;;;;;;6.50;0.80;;;;;;;16.80;53.70;100917.28;5103501;28;20085;-80
2022/06/14 12:37:38;;;;;;;6.68;0.98;;;;;;;16.77;53.76;100914.13;5074786;28;20032;-81
2022/06/14 12:40:20;;;;;;;6.22;0.80;;;;;;;16.60;53.34;100911.53;5096641;28;20032;-81
2022/06/14 12:43:02;;;;;;;3.58;0.73;;;;;;;16.47;53.78;100904.91;5080222;28;20024;-81
2022/06/14 12:45:41;;;;;;;2.92;0.75;;;;;;;16.45;54.35;100908.75;5069416;28;20046;-81
2022/06/14 12:48:44;;;;;;;6.15;1.00;;;;;;;16.47;53.96;100906.72;5052300;28;20062;-81
2022/06/14 12:51:16;;;;;;;7.13;1.10;;;;;;;16.55;54.48;100904.03;5030684;28;20166;-81
2022/06/14 12:53:55;;;;;;;6.65;1.20;;;;;;;16.66;54.24;100902.81;5056295;28;20027;-81
2022/06/14 12:56:27;;;;;;;2.10;0.82;;;;;;;16.83;54.15;100902.75;5054447;28;20580;-81
2022/06/14 12:59:15;;;;;;;6.18;0.80;;;;;;;16.92;54.18;100901.72;5071709;28;20030;-81
2022/06/14 13:01:58;;;;;;;2.35;0.57;;;;;;;17.05;54.34;100903.81;5064885;28;20031;-81
2022/06/14 13:04:44;;;;;;;3.45;0.95;;;;;;;17.19;53.96;100891.56;5088898;28;20159;-81
2022/06/14 13:07:21;;;;;;;3.58;0.70;;;;;;;17.30;53.80;100897.50;5037374;28;20032;-81
2022/06/14 13:10:27;;;;;;;4.90;1.08;;;;;;;17.36;54.57;100899.44;5070719;28;20028;-81
2022/06/14 13:12:54;;;;;;;5.30;0.93;;;;;;;17.43;54.60;100896.91;5068846;28;20030;-81
2022/06/14 13:15:52;;;;;;;2.70;0.80;;;;;;;17.50;53.26;100900.53;5058527;28;20036;-81
2022/06/14 13:18:50;;;;;;;4.32;0.70;;;;;;;17.57;53.71;100892.59;5077903;28;20042;-81
2022/06/14 13:21:22;;;;;;;4.80;1.10;;;;;;;17.73;53.54;100894.31;5021547;28;20103;-81
2022/06/14 13:23:57;;;;;;;4.15;1.10;;;;;;;17.93;52.59;100891.94;5065584;28;20429;-81
2022/06/14 13:26:41;;;;;;;4.43;0.80;;;;;;;17.96;50.86;100883.56;5068384;28;20043;-81
2022/06/14 13:29:10;;;;;;;2.95;0.85;;;;;;;18.10;51.12;100879.25;5088025;28;20041;-81
2022/06/14 13:32:16;;;;;;;2.65;0.65;;;;;;;18.27;50.46;100867.56;5063741;28;20040;-81
2022/06/14 13:35:13;;;;;;;5.10;1.52;;;;;;;18.33;49.14;100874.88;5070035;28;20484;-82
2022/06/14 13:37:48;;;;;;;4.45;0.80;;;;;;;18.28;50.38;100870.06;5103690;28;20039;-82
2022/06/14 13:40:28;;;;;;;3.83;0.75;;;;;;;18.27;50.71;100864.91;5061252;28;20074;-82
2022/06/14 13:42:58;;;;;;;3.35;0.95;;;;;;;18.42;50.64;100859.53;5078342;28;20032;-82
2022/06/14 13:45:30;;;;;;;2.80;0.80;;;;;;;18.58;50.41;100855.81;5081241;28;20028;-83
2022/06/14 13:48:31;;;;;;;3.30;0.80;;;;;;;18.66;50.44;100857.53;5074288;28;20070;-82
2022/06/14 13:51:18;;;;;;;4.00;0.70;;;;;;;18.69;49.59;100855.34;5091392;28;20034;-83
2022/06/14 13:54:01;;;;;;;3.53;0.80;;;;;;;18.72;50.32;100846.09;5049613;28;20458;-84
2022/06/14 13:57:10;;;;;;;4.88;0.80;;;;;;;18.31;51.19;100842.09;5063173;28;20028;-84
2022/06/14 13:59:39;;;;;;;3.38;0.90;;;;;;;18.20;51.57;100840.72;5099005;28;20032;-83
2022/06/14 14:02:18;;;;;;;1.65;0.60;;;;;;;18.23;51.46;100843.03;5080323;28;20035;-82
2022/06/14 14:05:02;;;;;;;4.00;0.77;;;;;;;18.26;51.21;100837.31;5058146;28;20483;-82
2022/06/14 14:07:37;;;;;;;2.40;0.60;;;;;;;18.35;51.17;100841.53;5095936;28;20045;-82
2022/06/14 14:10:33;;;;;;;2.88;0.50;;;;;;;18.34;50.56;100845.25;5049819;28;20028;-83
2022/06/14 14:12:59;;;;;;;6.13;0.95;;;;;;;18.41;50.76;100839.94;5050254;28;20032;-83
2022/06/14 14:15:36;;;;;;;2.38;0.52;;;;;;;18.47;49.30;100835.72;5052240;28;20039;-83
2022/06/14 14:18:23;;;;;;;0.80;0.45;;;;;;;18.53;49.49;100834.97;5073228;28;20032;-83
2022/06/14 14:20:54;;;;;;;2.25;0.50;;;;;;;18.64;49.13;100839.00;5078609;28;20032;-83
2022/06/14 14:23:24;;;;;;;4.03;0.77;;;;;;;18.67;48.39;100835.94;5052647;28;20051;-83
2022/06/14 14:26:17;;;;;;;3.58;0.60;;;;;;;18.59;47.98;100823.50;5027585;28;20123;-83
2022/06/14 14:28:58;;;;;;;3.00;0.68;;;;;;;18.63;48.03;100829.31;5042534;28;20075;-83
2022/06/14 14:31:49;;;;;;;6.15;0.70;;;;;;;18.76;47.90;100827.81;5089994;28;20032;-82
2022/06/14 14:34:30;;;;;;;3.08;0.63;;;;;;;18.77;47.84;100824.94;5086855;28;20036;-83
2022/06/14 14:36:59;;;;;;;8.30;0.57;;;;;;;18.81;47.98;100814.66;5037787;28;20488;-82
2022/06/14 14:39:31;;;;;;;5.75;0.70;;;;;;;18.87;47.77;100821.09;5038553;28;20383;-82
2022/06/14 14:42:00;;;;;;;2.65;0.80;;;;;;;18.92;47.64;100818.69;5061466;28;20373;-82
2022/06/14 14:44:33;;;;;;;3.88;0.70;;;;;;;18.91;47.65;100815.19;5079866;28;20040;-82
2022/06/14 14:47:14;;;;;;;4.65;0.93;;;;;;;18.86;47.53;100806.88;5071752;28;20036;-82
2022/06/14 14:49:59;;;;;;;3.17;0.90;;;;;;;18.76;47.30;100803.69;5084938;28;20069;-83
2022/06/14 14:52:30;;;;;;;1.58;0.55;;;;;;;18.70;47.55;100802.59;5091894;28;20082;-82
2022/06/14 14:55:29;;;;;;;2.47;0.75;;;;;;;18.67;47.52;100797.63;5073313;28;20035;-82
2022/06/14 14:58:18;;;;;;;4.75;0.90;;;;;;;18.67;47.72;100794.94;5095297;28;20032;-81
2022/06/14 15:07:24;;;;;;;3.95;0.60;;;;;;;18.60;48.01;100784.19;5015578;28;20095;-83
2022/06/14 15:10:00;;;;;;;4.18;1.13;;;;;;;18.64;47.81;100781.94;5055237;28;20040;-82
2022/06/14 15:12:29;;;;;;;6.90;1.15;;;;;;;18.69;47.51;100787.56;5077902;28;20024;-82
2022/06/14 15:15:04;;;;;;;2.47;0.77;;;;;;;18.67;47.51;100787.75;5059831;28;20031;-82
2022/06/14 15:20:18;;;;;;;2.03;0.70;;;;;;;18.71;47.48;100786.34;5064314;28;20536;-82
2022/06/14 15:22:46;;;;;;;2.72;0.80;;;;;;;18.71;47.84;100785.53;5046833;28;20115;-82
2022/06/14 15:25:26;;;;;;;3.47;0.60;;;;;;;18.67;47.94;100781.56;5071792;28;20103;-82
2022/06/14 15:28:07;;;;;;;4.65;0.60;;;;;;;18.67;47.73;100779.72;5089424;28;20045;-82
2022/06/14 15:30:44;;;;;;;3.45;0.70;;;;;;;18.66;47.84;100775.41;5091848;28;20046;-82
2022/06/14 15:33:26;;;;;;;4.55;0.60;;;;;;;18.72;47.57;100779.97;5105871;28;20035;-82
2022/06/14 15:36:32;;;;;;;2.50;0.50;;;;;;;18.74;47.61;100779.78;5091807;28;20498;-82
2022/06/14 15:39:20;;;;;;;6.10;1.27;;;;;;;18.66;47.06;100771.88;5059521;28;20070;-82
2022/06/14 15:41:47;;;;;;;4.15;0.60;;;;;;;18.62;48.24;100781.31;5093541;28;20027;-82
2022/06/14 15:44:13;;;;;;;2.50;0.70;;;;;;;18.57;48.23;100776.53;5092585;28;20027;-83
2022/06/14 15:47:03;;;;;;;5.18;1.38;;;;;;;18.50;47.92;100778.28;5075012;28;20130;-82
2022/06/14 15:49:32;;;;;;;3.90;0.80;;;;;;;18.42;48.23;100777.41;5070407;28;20047;-82
2022/06/14 15:52:05;;;;;;;2.63;0.60;;;;;;;18.37;48.46;100781.63;5071214;28;20075;-82
2022/06/14 15:54:36;;;;;;;4.70;0.80;;;;;;;18.37;48.46;100782.47;5073096;28;20124;-82
2022/06/14 15:57:21;;;;;;;7.72;0.73;;;;;;;18.40;48.60;100781.25;5088143;28;20063;-82
2022/06/14 15:59:55;;;;;;;5.25;1.00;;;;;;;18.37;49.15;100774.44;5090613;28;20089;-82
2022/06/14 16:02:39;;;;;;;5.07;0.60;;;;;;;18.32;49.93;100780.38;5110097;28;20409;-82
2022/06/14 16:05:16;;;;;;;1.75;0.55;;;;;;;18.20;50.18;100771.16;5074961;28;20096;-83
2022/06/14 16:07:57;;;;;;;3.15;0.75;;;;;;;18.13;50.38;100776.44;5077582;28;20039;-83
2022/06/14 16:10:33;;;;;;;3.30;0.80;;;;;;;18.08;49.63;100771.59;5077799;28;20548;-82
2022/06/14 16:13:05;;;;;;;3.35;1.10;;;;;;;18.06;49.68;100773.63;5082420;28;20039;-82
2022/06/14 16:15:34;;;;;;;4.50;0.68;;;;;;;18.06;49.46;100770.97;5079523;28;20032;-82
2022/06/14 16:18:19;;;;;;;4.13;0.90;;;;;;;18.07;49.33;100767.28;5077687;28;20559;-82
2022/06/14 16:21:19;;;;;;;4.10;0.68;;;;;;;18.13;49.93;100764.88;5080052;28;20039;-82
2022/06/14 16:23:46;;;;;;;4.03;0.70;;;;;;;18.21;50.01;100762.97;5093409;28;20039;-82
2022/06/14 16:26:20;;;;;;;7.30;0.60;;;;;;;18.27;49.46;100768.59;5092657;28;20038;-82
2022/06/14 16:29:18;;;;;;;4.82;0.80;;;;;;;18.25;49.76;100766.06;5062274;28;20042;-82
2022/06/14 16:32:00;;;;;;;2.03;0.70;;;;;;;18.20;49.42;100761.28;5091263;28;20044;-83
2022/06/14 16:34:39;;;;;;;2.15;0.68;;;;;;;18.14;50.19;100764.69;5095099;28;20079;-83
2022/06/14 16:37:30;;;;;;;2.15;0.43;;;;;;;18.12;50.03;100764.09;4989658;28;20503;-83
2022/06/14 16:40:02;;;;;;;4.30;0.73;;;;;;;18.02;50.33;100758.97;5087348;28;20097;-84
2022/06/14 16:42:31;;;;;;;1.48;0.57;;;;;;;18.00;50.20;100763.69;5086568;28;20028;-84
2022/06/14 16:45:25;;;;;;;2.75;0.60;;;;;;;17.98;49.96;100757.72;5078467;28;20028;-85
2022/06/14 16:47:51;;;;;;;1.70;0.63;;;;;;;17.87;50.60;100758.16;5081007;28;20028;-82
2022/06/14 16:50:27;;;;;;;5.60;0.70;;;;;;;17.83;50.64;100753.19;5091929;28;20111;-82
2022/06/14 16:53:32;;;;;;;1.80;0.38;;;;;;;17.83;50.83;100755.03;5093797;28;20032;-82
2022/06/14 16:56:39;;;;;;;4.25;1.17;;;;;;;17.83;50.21;100761.22;5076048;28;20089;-82
2022/06/14 16:59:31;;;;;;;1.42;0.55;;;;;;;17.85;50.17;100756.50;5081235;28;20036;-82
2022/06/14 17:02:20;;;;;;;2.40;0.75;;;;;;;17.87;50.35;100747.47;5092965;28;20032;-82
2022/06/14 17:05:07;;;;;;;1.85;0.77;;;;;;;17.89;50.08;100756.97;5092168;28;20431;-82
2022/06/14 17:08:05;;;;;;;2.55;0.68;;;;;;;17.89;50.16;100754.28;5090052;28;20081;-82
2022/06/14 17:10:47;;;;;;;3.60;0.60;;;;;;;17.92;50.04;100745.88;5055027;28;20040;-82
2022/06/14 17:13:15;;;;;;;5.00;0.60;;;;;;;17.94;50.12;100751.06;5078108;28;20503;-82
2022/06/14 17:16:03;;;;;;;2.38;0.73;;;;;;;17.90;50.13;100749.78;5088776;28;20070;-82
2022/06/14 17:18:38;;;;;;;3.55;0.50;;;;;;;17.83;50.05;100745.16;5088761;28;20519;-82
2022/06/14 17:21:10;;;;;;;3.17;0.95;;;;;;;17.81;49.90;100746.34;5093022;28;20481;-82
2022/06/14 17:23:43;;;;;;;5.35;0.77;;;;;;;17.77;49.80;100750.41;5072220;28;20032;-82
2022/06/14 17:32:18;;;;;;;2.53;0.90;;;;;;;17.64;50.12;100738.53;5089796;28;20500;-82
2022/06/14 17:34:54;;;;;;;2.58;0.80;;;;;;;17.63;50.34;100741.38;5093101;28;20476;-82
2022/06/14 17:37:31;;;;;;;1.98;0.65;;;;;;;17.64;50.58;100738.53;5092496;28;20119;-81
2022/06/14 17:40:07;;;;;;;2.30;0.68;;;;;;;17.67;50.82;100735.50;5090220;28;20024;-82
2022/06/14 17:42:35;;;;;;;;;;;;;;;17.53;51.26;100734.47;5089955;28;20045;-81
2022/06/14 17:45:13;;;;;;;2.65;0.65;;;;;;;17.59;51.09;100740.91;5092549;28;19920;-81
2022/06/14 17:47:56;;;;;;;5.57;0.73;;;;;;;17.60;50.77;100739.91;5092147;28;20036;-81
2022/06/14 17:50:48;;;;;;;7.68;0.80;;;;;;;17.61;51.19;100736.22;5097739;28;20033;-82
2022/06/14 17:53:31;;;;;;;5.38;0.60;;;;;;;17.55;50.80;100743.13;5084358;28;20048;-81
2022/06/14 17:56:03;;;;;;;2.90;0.63;;;;;;;17.54;51.17;100746.81;5092060;28;20024;-81
2022/06/14 17:58:45;;;;;;;1.38;0.50;;;;;;;17.52;51.04;100745.34;5089236;28;20062;-81
2022/06/14 18:01:24;;;;;;;3.88;0.60;;;;;;;17.47;51.23;100744.03;5073082;28;20067;-81
2022/06/14 18:04:13;;;;;;;4.28;0.70;;;;;;;17.52;51.21;100734.66;5088501;28;20028;-82
2022/06/14 18:06:54;;;;;;;1.98;0.73;;;;;;;17.57;51.22;100742.94;5088510;28;20409;-82
2022/06/14 18:09:46;;;;;;;4.18;0.60;;;;;;;17.49;50.82;100738.50;5091304;28;20055;-82
2022/06/14 18:12:12;;;;;;;3.53;0.60;;;;;;;17.50;51.07;100742.88;5056354;28;20028;-82
2022/06/14 18:14:46;;;;;;;1.73;0.55;;;;;;;17.53;51.17;100741.66;5086531;28;20024;-82
2022/06/14 18:17:39;;;;;;;8.13;0.65;;;;;;;17.54;51.07;100740.63;5067443;28;20040;-82
2022/06/14 18:23:05;;;;;;;5.57;0.57;;;;;;;17.53;51.54;100736.31;5083235;28;20036;-81
2022/06/14 18:25:49;;;;;;;;;;;;;;;17.38;51.67;100734.44;5086078;28;20033;-81
2022/06/14 18:28:27;;;;;;;3.10;0.63;;;;;;;17.50;51.64;100731.34;5050785;28;19913;-81
2022/06/14 18:30:56;;;;;;;2.22;0.40;;;;;;;17.54;51.46;100727.28;5083340;28;20043;-82
2022/06/14 18:33:29;;;;;;;2.20;0.82;;;;;;;17.56;51.68;100725.25;5073742;28;20063;-81
2022/06/14 18:36:15;;;;;;;4.38;0.50;;;;;;;17.55;51.47;100720.94;5072742;28;20031;-81
2022/06/14 18:38:46;;;;;;;;;;;;;;;17.42;52.12;100721.56;5088409;28;20043;-81
2022/06/14 18:41:32;;;;;;;2.70;0.70;;;;;;;17.49;51.57;100725.16;5072513;28;19926;-82
2022/06/14 18:44:10;;;;;;;3.40;0.90;;;;;;;17.52;51.64;100723.97;5039594;28;20056;-82
2022/06/14 18:46:36;;;;;;;1.55;0.73;;;;;;;17.51;51.59;100725.81;5056896;28;20089;-81
2022/06/14 18:49:05;;;;;;;1.70;0.80;;;;;;;17.51;51.76;100727.63;5057773;28;20039;-81
2022/06/14 18:51:35;;;;;;;6.93;0.57;;;;;;;17.50;51.82;100716.13;5057170;28;20445;-81
2022/06/14 18:54:08;;;;;;;5.32;1.17;;;;;;;17.48;51.96;100726.19;5057114;28;20115;-81
2022/06/14 18:56:43;;;;;;;5.25;0.57;;;;;;;17.47;51.86;100721.84;5055765;28;20040;-83
2022/06/14 18:59:12;;;;;;;5.50;1.00;;;;;;;17.44;52.09;100728.38;5067860;28;20104;-81
2022/06/14 19:01:39;;;;;;;1.92;0.50;;;;;;;17.45;51.98;100721.19;5071090;28;20544;-81
2022/06/14 19:04:25;;;;;;;0.73;0.25;;;;;;;17.40;52.05;100727.09;5055578;28;20028;-81
2022/06/14 19:07:09;;;;;;;4.00;1.13;;;;;;;17.35;52.24;100722.28;5071844;28;20234;-81
2022/06/14 19:09:52;;;;;;;3.00;0.63;;;;;;;17.34;52.29;100722.47;5061283;28;20021;-81
2022/06/14 19:12:35;;;;;;;4.93;0.60;;;;;;;17.32;52.43;100730.69;5070348;28;20036;-81
2022/06/14 19:15:13;;;;;;;4.50;0.82;;;;;;;17.31;52.72;100718.31;5085938;28;20032;-81
2022/06/14 19:18:01;;;;;;;3.30;0.77;;;;;;;17.29;52.83;100716.84;5052063;28;20035;-81
2022/06/14 19:20:43;;;;;;;5.47;1.80;;;;;;;17.26;53.31;100718.06;5066240;28;21152;-81
2022/06/14 19:23:24;;;;;;;4.35;1.02;;;;;;;17.25;53.36;100708.34;5050066;28;20132;-81
2022/06/14 19:26:21;;;;;;;5.60;0.98;;;;;;;17.26;53.50;100717.22;5065432;28;20101;-81
2022/06/14 19:29:09;;;;;;;8.90;1.13;;;;;;;17.22;53.65;100722.09;5086621;28;20123;-81
2022/06/14 19:31:47;;;;;;;3.83;0.88;;;;;;;17.26;53.88;100719.88;5069576;28;20400;-82
2022/06/14 19:34:26;;;;;;;2.67;0.90;;;;;;;17.27;54.05;100713.53;5066519;28;20404;-82
2022/06/14 19:36:57;;;;;;;4.88;1.00;;;;;;;17.28;54.32;100717.88;5048466;28;20047;-80
2022/06/14 19:39:26;;;;;;;3.33;0.65;;;;;;;17.26;54.54;100723.41;5067439;28;20043;-81
2022/06/14 19:42:04;;;;;;;2.47;0.68;;;;;;;17.23;54.85;100713.88;5053391;28;20024;-81
2022/06/14 19:44:39;;;;;;;1.25;0.60;;;;;;;17.20;54.84;100718.78;5073211;28;20032;-81
2022/06/14 19:47:15;;;;;;;0.93;0.60;;;;;;;17.15;55.09;100723.84;5080829;28;20036;-81
2022/06/14 19:52:36;;;;;;;2.40;0.73;;;;;;;17.04;55.62;100717.88;5084690;28;20032;-81
2022/06/14 19:57:50;;;;;;;;;;;;;;;16.83;56.66;100729.25;5087585;28;20035;-81
2022/06/14 20:00:27;;;;;;;3.22;1.45;;;;;;;16.89;56.38;100725.84;5072122;28;19944;-81
2022/06/14 20:02:53;;;;;;;3.90;0.80;;;;;;;16.82;56.71;100724.88;5071652;28;20034;-81
2022/06/14 20:05:20;;;;;;;5.43;1.00;;;;;;;16.80;57.05;100721.59;5069678;28;20028;-81
2022/06/14 20:07:47;;;;;;;3.13;0.90;;;;;;;16.77;57.40;100722.75;5093974;28;20069;-81
2022/06/14 20:10:16;;;;;;;3.83;1.05;;;;;;;16.74;57.35;100718.63;5055098;28;20039;-81
2022/06/14 20:12:46;;;;;;;5.45;1.10;;;;;;;16.69;57.30;100725.50;5073126;28;20185;-80
2022/06/14 20:15:37;;;;;;;2.40;0.80;;;;;;;16.64;57.62;100714.53;5065496;28;20033;-81
2022/06/14 20:18:16;;;;;;;2.90;0.90;;;;;;;16.59;57.75;100723.91;5067351;28;20084;-81
2022/06/14 20:20:45;;;;;;;3.33;0.70;;;;;;;16.56;57.83;100723.44;5088779;28;20070;-81
2022/06/14 20:23:16;;;;;;;3.85;0.70;;;;;;;16.42;58.06;100722.34;5068411;28;20510;-81
2022/06/14 20:25:50;;;;;;;1.58;0.80;;;;;;;16.26;58.70;100728.63;5056385;28;20089;-81
2022/06/14 20:28:21;;;;;;;6.10;1.10;;;;;;;16.11;59.33;100737.34;5067727;28;20060;-81
2022/06/14 20:31:00;;;;;;;2.40;0.93;;;;;;;15.94;59.71;100732.03;5058093;28;20059;-81
2022/06/14 20:33:27;;;;;;;2.45;0.70;;;;;;;15.82;60.04;100739.59;5045875;28;20031;-82
2022/06/14 20:35:55;;;;;;;5.90;1.05;;;;;;;15.73;60.30;100746.78;5069158;28;20035;-82
2022/06/14 20:38:38;;;;;;;4.57;0.98;;;;;;;15.66;60.37;100745.81;5088586;28;20036;-82
2022/06/14 20:41:06;;;;;;;1.77;0.73;;;;;;;15.60;60.31;100757.97;5056187;28;20408;-82
2022/06/14 20:43:33;;;;;;;2.05;0.90;;;;;;;15.51;60.69;100753.69;5036826;28;20418;-83
2022/06/14 20:45:59;;;;;;;2.72;0.77;;;;;;;15.41;60.84;100753.84;5086846;28;20036;-82
2022/06/14 20:48:25;;;;;;;2.97;0.80;;;;;;;15.33;60.76;100761.84;5063069;28;20039;-84
2022/06/14 20:50:55;;;;;;;1.73;0.60;;;;;;;15.23;61.05;100770.00;5085454;28;20081;-84
2022/06/14 20:53:22;;;;;;;1.00;0.55;;;;;;;15.16;61.22;100769.00;5074215;28;20028;-82
2022/06/14 20:55:50;;;;;;;2.53;0.63;;;;;;;15.09;61.26;100763.53;5038860;28;20040;-81
2022/06/14 20:58:21;;;;;;;1.50;0.60;;;;;;;15.02;61.57;100766.00;5073964;28;20032;-83
2022/06/14 21:00:49;;;;;;;2.67;0.75;;;;;;;14.93;61.43;100767.00;5092101;28;20035;-80
2022/06/14 21:03:21;;;;;;;3.30;0.60;;;;;;;14.90;61.58;100770.00;5054721;28;20024;-81
2022/06/14 21:05:48;;;;;;;2.80;0.70;;;;;;;14.84;61.59;100768.84;5055034;28;20409;-81
2022/06/14 21:08:16;;;;;;;2.80;0.60;;;;;;;14.82;61.40;100770.81;5074060;28;20042;-81
2022/06/14 21:14:11;;;;;;;4.05;0.77;;;;;;;14.66;61.48;100776.91;5087133;28;20020;-80
2022/06/14 21:16:40;;;;;;;5.65;1.13;;;;;;;14.65;61.35;100784.09;5043591;28;20119;-81
2022/06/14 21:19:07;;;;;;;3.88;0.90;;;;;;;14.61;61.22;100785.38;5052517;28;20055;-81
2022/06/14 21:21:35;;;;;;;0.68;0.43;;;;;;;14.61;61.38;100785.38;5059584;28;20476;-81
2022/06/14 21:24:13;;;;;;;3.15;0.90;;;;;;;14.57;61.34;100784.88;5074796;28;20036;-81
2022/06/14 21:27:03;;;;;;;2.55;0.77;;;;;;;14.55;61.43;100789.53;5073991;28;20028;-81
2022/06/14 21:29:30;;;;;;;1.58;0.77;;;;;;;14.50;61.48;100786.53;5082188;28;20044;-81
2022/06/14 21:31:59;;;;;;;3.58;0.80;;;;;;;14.51;61.45;100793.50;5070534;28;20518;-81
2022/06/14 21:34:25;;;;;;;3.72;0.70;;;;;;;14.49;61.28;100788.34;5071477;28;20059;-81
2022/06/14 21:36:54;;;;;;;1.25;0.60;;;;;;;14.48;61.64;100797.31;5088479;28;20028;-81
2022/06/14 21:39:28;;;;;;;2.70;0.85;;;;;;;14.46;61.51;100779.88;5054167;28;20392;-81
2022/06/14 21:42:03;;;;;;;3.30;0.68;;;;;;;14.44;61.62;100782.69;5054433;28;20063;-82
2022/06/14 21:44:41;;;;;;;4.20;0.90;;;;;;;14.40;61.59;100786.66;5084732;28;20111;-81
2022/06/14 21:47:09;;;;;;;2.42;0.85;;;;;;;14.37;61.85;100785.16;5073776;28;20028;-81
2022/06/14 21:49:38;;;;;;;1.45;0.85;;;;;;;14.34;61.86;100777.50;5081743;28;20077;-80
2022/06/14 21:52:12;;;;;;;5.65;1.00;;;;;;;14.30;61.65;100781.47;5088660;28;20119;-80
2022/06/14 21:54:45;;;;;;;2.33;0.80;;;;;;;14.25;62.23;100779.28;5041489;28;20032;-81
2022/06/14 21:57:19;;;;;;;1.90;0.70;;;;;;;14.18;62.15;100780.94;5056483;28;20101;-81
2022/06/14 21:59:46;;;;;;;3.88;1.20;;;;;;;14.11;62.46;100780.72;5062615;28;20471;-82
2022/06/14 22:02:31;;;;;;;5.35;1.00;;;;;;;14.05;62.57;100773.41;5073020;28;20172;-82
2022/06/14 22:04:58;;;;;;;4.00;1.30;;;;;;;13.92;62.79;100768.50;5058430;28;20047;-81
2022/06/14 22:07:25;;;;;;;3.40;1.02;;;;;;;13.84;63.14;100777.28;5070554;28;20036;-81
2022/06/14 22:09:52;;;;;;;3.42;0.82;;;;;;;13.76;63.31;100779.91;5044506;28;20031;-81
2022/06/14 22:12:31;;;;;;;2.25;0.80;;;;;;;13.70;63.45;100770.72;5052297;28;20035;-81
2022/06/14 22:15:01;;;;;;;3.50;1.27;;;;;;;13.68;63.77;100778.00;5075064;28;20024;-81
2022/06/14 22:17:27;;;;;;;4.40;1.10;;;;;;;13.66;64.14;100782.66;5091161;28;20145;-81
2022/06/14 22:19:53;;;;;;;2.58;1.10;;;;;;;13.67;64.14;100778.16;5071637;28;20036;-81
2022/06/14 22:22:19;;;;;;;3.38;1.00;;;;;;;13.69;64.14;100778.84;5072517;28;20609;-81
2022/06/14 22:24:46;;;;;;;1.60;0.98;;;;;;;13.71;63.84;100779.53;5073280;28;20450;-81
2022/06/14 22:27:29;;;;;;;2.88;0.70;;;;;;;13.74;64.01;100777.38;5074242;28;20036;-80
2022/06/14 22:30:17;;;;;;;9.43;1.00;;;;;;;13.75;63.80;100776.41;5056155;28;20032;-80
2022/06/14 22:32:43;;;;;;;3.67;1.13;;;;;;;13.82;63.87;100775.78;5064819;28;20083;-80
2022/06/14 22:35:16;;;;;;;9.55;1.10;;;;;;;13.87;63.53;100776.16;5083602;28;20036;-81
2022/06/14 22:37:42;;;;;;;2.08;1.00;;;;;;;13.84;63.84;100771.97;5054624;28;20032;-81
2022/06/14 22:40:10;;;;;;;3.55;1.10;;;;;;;13.88;63.84;100765.34;5061500;28;20125;-81
2022/06/14 22:42:37;;;;;;;4.03;1.17;;;;;;;13.89;63.97;100769.66;5081100;28;20056;-81
2022/06/14 22:45:03;;;;;;;3.88;1.17;;;;;;;13.95;63.61;100767.38;5037267;28;20039;-81
2022/06/14 22:47:29;;;;;;;2.33;1.00;;;;;;;14.00;63.70;100770.38;5065605;28;20036;-81
2022/06/14 22:49:55;;;;;;;1.08;0.90;;;;;;;14.02;63.53;100771.91;5084539;28;20032;-81
2022/06/14 22:53:12;;;;;;;2.92;1.00;;;;;;;14.06;63.49;100764.44;5066487;28;20032;-80
2022/06/14 22:55:40;;;;;;;4.30;1.02;;;;;;;14.03;63.51;100770.06;5058870;28;20117;-81
2022/06/14 22:58:24;;;;;;;8.48;0.98;;;;;;;14.04;63.68;100768.25;5070135;28;20078;-81
2022/06/14 23:00:50;;;;;;;4.25;1.17;;;;;;;14.02;63.53;100773.72;5064905;28;20473;-81
2022/06/14 23:03:16;;;;;;;3.13;0.73;;;;;;;14.04;63.71;100779.72;5035436;28;20033;-81
2022/06/14 23:05:41;;;;;;;2.05;0.63;;;;;;;14.10;63.62;100780.88;5035297;28;20442;-81
2022/06/14 23:08:08;;;;;;;2.58;0.93;;;;;;;14.13;63.67;100785.88;5052406;28;20033;-81
2022/06/14 23:10:34;;;;;;;1.63;0.73;;;;;;;14.16;63.61;100782.09;5034796;28;20036;-81
2022/06/14 23:13:00;;;;;;;2.10;0.80;;;;;;;14.17;63.49;100786.41;5066373;28;20025;-81
2022/06/14 23:15:27;;;;;;;3.63;1.00;;;;;;;14.17;63.60;100784.59;5068757;28;20119;-81
2022/06/14 23:17:57;;;;;;;2.75;0.77;;;;;;;14.20;63.71;100784.28;5051392;28;20078;-80
2022/06/14 23:20:24;;;;;;;1.65;0.85;;;;;;;14.18;63.64;100783.59;5034506;28;20051;-81
2022/06/14 23:22:50;;;;;;;2.22;1.00;;;;;;;14.16;63.60;100782.91;5051657;28;20037;-80
2022/06/14 23:25:16;;;;;;;3.83;1.00;;;;;;;14.14;63.83;100787.56;5052027;28;20669;-81
2022/06/14 23:27:43;;;;;;;3.47;0.90;;;;;;;14.12;63.90;100787.72;5042893;28;20039;-80
2022/06/14 23:30:09;;;;;;;3.88;0.80;;;;;;;14.09;64.02;100782.72;5044170;28;20429;-81
2022/06/14 23:32:36;;;;;;;3.72;1.00;;;;;;;14.05;64.23;100781.38;5056985;28;20067;-81
2022/06/14 23:35:01;;;;;;;2.40;1.10;;;;;;;14.02;64.06;100777.22;5064708;28;20500;-81
2022/06/14 23:37:28;;;;;;;3.85;1.15;;;;;;;14.00;64.30;100773.03;5056220;28;20032;-81
2022/06/14 23:39:54;;;;;;;4.28;0.80;;;;;;;13.98;64.35;100764.41;5063734;28;20032;-82
2022/06/14 23:42:20;;;;;;;3.83;1.08;;;;;;;13.94;64.41;100761.22;5033155;28;20082;-82
2022/06/14 23:44:46;;;;;;;3.58;0.90;;;;;;;13.88;64.57;100765.34;5034539;28;20081;-81
2022/06/14 23:47:12;;;;;;;1.33;1.00;;;;;;;13.87;64.53;100774.31;5067304;28;20036;-81
2022/06/14 23:49:38;;;;;;;2.53;0.80;;;;;;;13.86;64.62;100766.50;5065939;28;20119;-81
2022/06/14 23:52:04;;;;;;;3.38;0.70;;;;;;;13.84;64.64;100766.66;5050111;28;20032;-81
2022/06/14 23:54:30;;;;;;;4.20;1.10;;;;;;;13.81;64.74;100763.50;5068409;28;20033;-80
2022/06/14 23:56:57;;;;;;;1.15;0.80;;;;;;;13.81;64.80;100755.53;5065243;28;20036;-81
2022/06/14 23:59:23;;;;;;;2.15;1.00;;;;;;;13.75;64.93;100760.47;5069098;28;20232;-81
